Portada
METAR-TAF:

METAR-TAF

Aeroports :

Ürümqi, Xina

latitud: 43-54N, longitud: 087-28E, altitud: 654 m

Observació

L'informe es va fer fa 35 minuts, a les 18:00 UTC
Vent 8 kt del Sud
Temperatura 27°C
Humitat 15%
Pressió 1007 hPa
Visibilitat 10 km o més
sense núvols per sota de 1500 mi sense presència de cumulonimbus.

METAR: ZWWW 021800Z 17004MPS CAVOK 27/M02 Q1007 NOSIG

Hora: 00:35 (18:35 UTC)

Pronòstic

L'informe es va fer fa 3 hores i 33 minuts, a les 15:02 UTC
Pronòstic vàlid del 02 a les 18 UTC al 03 a les 18 UTC
Vent 8 kt del Sud
Visibilitat 10 km o més
sense núvols per sota de 1500 mi sense presència de cumulonimbus.
Evolucionant progressivament
l' 03 a les 02 UTC al 03 a les 03 UTC
Vent 8 kt del Nord
Evolucionant progressivament
l' 03 a les 13 UTC al 03 a les 14 UTC
Vent 8 kt del Sud

TAF: ZWWW 021502Z 0218/0318 18004MPS CAVOK TX35/0309Z TN25/0223Z BECMG 0302/0303 36004MPS BECMG 0313/0314 18004MPS

Observacions i pronòstics meteorològics de més de 4000 aeroports (METAR i TAF).

Les estacions disponibles són els punts grocs i vermells al mapa.

Posi el ratolí al punt desitjat per veure el nom de l'estació.

Feu clic per veure les observacions i els pronòstics meteorològics.

Per canviar el mapa: feu clic els botons verds amb una creu de color negre per apropar; al botó verd amb un guió per allunyar la imatge; o en les fletxes verdes per a mapes adjacents.


METAR-TAF: